sensor_id;sensor_type;location;lat;lon;timestamp;temperature;humidity
43528;DHT22;52359;42.658;23.320;2023-06-22T06:41:19;21.20;99.90
43528;DHT22;52359;42.658;23.320;2023-06-22T06:43:46;21.30;99.90
43528;DHT22;52359;42.658;23.320;2023-06-22T06:46:12;21.50;99.90
43528;DHT22;52359;42.658;23.320;2023-06-22T06:48:37;21.60;99.90
43528;DHT22;52359;42.658;23.320;2023-06-22T06:51:03;21.60;99.90
43528;DHT22;52359;42.658;23.320;2023-06-22T06:55:55;21.70;99.90
43528;DHT22;52359;42.658;23.320;2023-06-22T06:58:20;22.10;99.90
43528;DHT22;52359;42.658;23.320;2023-06-22T07:00:48;22.30;99.90
43528;DHT22;52359;42.658;23.320;2023-06-22T07:03:14;22.40;99.90
43528;DHT22;52359;42.658;23.320;2023-06-22T07:05:39;22.60;99.90
43528;DHT22;52359;42.658;23.320;2023-06-22T07:08:05;22.80;99.90
43528;DHT22;52359;42.658;23.320;2023-06-22T07:10:31;23.10;99.90
43528;DHT22;52359;42.658;23.320;2023-06-22T07:12:56;23.40;99.90
43528;DHT22;52359;42.658;23.320;2023-06-22T07:15:22;23.40;99.90
43528;DHT22;52359;42.658;23.320;2023-06-22T07:17:48;23.50;99.90
43528;DHT22;52359;42.658;23.320;2023-06-22T07:20:13;23.60;99.90
43528;DHT22;52359;42.658;23.320;2023-06-22T07:22:43;23.60;99.90
43528;DHT22;52359;42.658;23.320;2023-06-22T07:25:12;23.70;99.90
43528;DHT22;52359;42.658;23.320;2023-06-22T07:27:56;23.80;99.90
43528;DHT22;52359;42.658;23.320;2023-06-22T07:30:22;23.80;99.90
43528;DHT22;52359;42.658;23.320;2023-06-22T07:32:48;23.80;99.90
43528;DHT22;52359;42.658;23.320;2023-06-22T07:35:14;24.10;99.90
43528;DHT22;52359;42.658;23.320;2023-06-22T07:37:41;24.20;99.90
43528;DHT22;52359;42.658;23.320;2023-06-22T07:40:08;24.30;99.90
43528;DHT22;52359;42.658;23.320;2023-06-22T07:59:39;25.30;99.90
43528;DHT22;52359;42.658;23.320;2023-06-22T08:02:05;25.60;99.90
43528;DHT22;52359;42.658;23.320;2023-06-22T08:31:20;26.80;99.90
43528;DHT22;52359;42.658;23.320;2023-06-22T08:33:46;26.90;99.90
43528;DHT22;52359;42.658;23.320;2023-06-22T08:36:12;27.00;99.90
43528;DHT22;52359;42.658;23.320;2023-06-22T08:38:39;27.20;99.90
43528;DHT22;52359;42.658;23.320;2023-06-22T08:41:04;27.40;99.90
43528;DHT22;52359;42.658;23.320;2023-06-22T08:58:09;27.40;99.90
43528;DHT22;52359;42.658;23.320;2023-06-22T09:00:34;27.30;99.90
43528;DHT22;52359;42.658;23.320;2023-06-22T09:03:01;27.10;99.90
43528;DHT22;52359;42.658;23.320;2023-06-22T09:05:27;27.00;99.90
43528;DHT22;52359;42.658;23.320;2023-06-22T09:07:53;26.90;99.90
43528;DHT22;52359;42.658;23.320;2023-06-22T09:10:21;26.80;99.90
43528;DHT22;52359;42.658;23.320;2023-06-22T09:12:46;27.00;99.90
43528;DHT22;52359;42.658;23.320;2023-06-22T09:15:12;27.00;99.90
43528;DHT22;52359;42.658;23.320;2023-06-22T09:17:38;27.10;99.90
43528;DHT22;52359;42.658;23.320;2023-06-22T09:20:04;27.10;99.90
43528;DHT22;52359;42.658;23.320;2023-06-22T09:22:31;27.00;99.90
43528;DHT22;52359;42.658;23.320;2023-06-22T09:24:58;27.20;99.90
43528;DHT22;52359;42.658;23.320;2023-06-22T09:27:25;27.50;99.90
43528;DHT22;52359;42.658;23.320;2023-06-22T09:29:50;27.50;99.90
43528;DHT22;52359;42.658;23.320;2023-06-22T09:32:16;27.50;99.90
43528;DHT22;52359;42.658;23.320;2023-06-22T09:34:42;27.60;99.90
43528;DHT22;52359;42.658;23.320;2023-06-22T09:37:07;27.80;99.90
43528;DHT22;52359;42.658;23.320;2023-06-22T09:39:33;27.80;99.90
43528;DHT22;52359;42.658;23.320;2023-06-22T09:41:59;27.80;99.90
43528;DHT22;52359;42.658;23.320;2023-06-22T09:44:28;27.70;99.90
43528;DHT22;52359;42.658;23.320;2023-06-22T09:46:53;28.00;99.90
43528;DHT22;52359;42.658;23.320;2023-06-22T10:50:14;29.40;99.90
43528;DHT22;52359;42.658;23.320;2023-06-22T10:52:40;29.60;99.90
43528;DHT22;52359;42.658;23.320;2023-06-22T10:55:08;29.80;99.90
43528;DHT22;52359;42.658;23.320;2023-06-22T10:57:33;29.70;99.90
43528;DHT22;52359;42.658;23.320;2023-06-22T10:59:59;29.80;99.90
43528;DHT22;52359;42.658;23.320;2023-06-22T11:02:25;30.00;99.90
43528;DHT22;52359;42.658;23.320;2023-06-22T11:04:53;29.80;99.90
43528;DHT22;52359;42.658;23.320;2023-06-22T11:07:19;30.00;99.90
43528;DHT22;52359;42.658;23.320;2023-06-22T11:09:44;30.00;99.90
43528;DHT22;52359;42.658;23.320;2023-06-22T11:12:10;30.00;99.90
43528;DHT22;52359;42.658;23.320;2023-06-22T11:14:36;30.20;99.90
43528;DHT22;52359;42.658;23.320;2023-06-22T11:17:01;30.10;99.90
43528;DHT22;52359;42.658;23.320;2023-06-22T11:19:27;30.00;99.90
43528;DHT22;52359;42.658;23.320;2023-06-22T11:21:53;30.40;99.90
43528;DHT22;52359;42.658;23.320;2023-06-22T11:24:18;30.70;99.90
43528;DHT22;52359;42.658;23.320;2023-06-22T11:26:44;30.60;99.90
43528;DHT22;52359;42.658;23.320;2023-06-22T11:29:10;30.30;99.90
43528;DHT22;52359;42.658;23.320;2023-06-22T11:31:36;30.10;99.90
43528;DHT22;52359;42.658;23.320;2023-06-22T11:34:02;30.30;99.90
43528;DHT22;52359;42.658;23.320;2023-06-22T11:36:29;30.40;99.90
43528;DHT22;52359;42.658;23.320;2023-06-22T11:38:54;30.20;99.90
43528;DHT22;52359;42.658;23.320;2023-06-22T11:41:20;30.20;99.90
43528;DHT22;52359;42.658;23.320;2023-06-22T11:43:46;30.40;99.90
43528;DHT22;52359;42.658;23.320;2023-06-22T11:46:11;30.30;99.90
43528;DHT22;52359;42.658;23.320;2023-06-22T11:48:37;30.30;99.90
43528;DHT22;52359;42.658;23.320;2023-06-22T11:51:03;30.10;99.90
43528;DHT22;52359;42.658;23.320;2023-06-22T11:53:29;30.00;99.90
43528;DHT22;52359;42.658;23.320;2023-06-22T11:55:55;29.80;99.90
43528;DHT22;52359;42.658;23.320;2023-06-22T11:58:22;29.50;99.90
43528;DHT22;52359;42.658;23.320;2023-06-22T12:00:48;28.90;99.90
43528;DHT22;52359;42.658;23.320;2023-06-22T12:03:14;28.30;99.90
43528;DHT22;52359;42.658;23.320;2023-06-22T12:05:40;28.00;99.90
43528;DHT22;52359;42.658;23.320;2023-06-22T12:08:06;27.80;99.90
43528;DHT22;52359;42.658;23.320;2023-06-22T12:10:32;27.70;99.90
43528;DHT22;52359;42.658;23.320;2023-06-22T12:12:57;27.50;99.90
43528;DHT22;52359;42.658;23.320;2023-06-22T12:15:25;27.50;99.90
43528;DHT22;52359;42.658;23.320;2023-06-22T12:17:51;27.40;99.90
43528;DHT22;52359;42.658;23.320;2023-06-22T12:20:16;27.30;99.90
43528;DHT22;52359;42.658;23.320;2023-06-22T12:22:42;27.30;99.90
43528;DHT22;52359;42.658;23.320;2023-06-22T17:18:30;24.30;99.90
43528;DHT22;52359;42.658;23.320;2023-06-22T17:20:58;24.30;99.90
43528;DHT22;52359;42.658;23.320;2023-06-22T17:23:24;24.30;99.90
43528;DHT22;52359;42.658;23.320;2023-06-22T17:28:18;24.20;99.90
43528;DHT22;52359;42.658;23.320;2023-06-22T17:30:44;24.20;99.90
43528;DHT22;52359;42.658;23.320;2023-06-22T17:33:14;24.10;99.90
43528;DHT22;52359;42.658;23.320;2023-06-22T17:35:48;23.90;99.90
43528;DHT22;52359;42.658;23.320;2023-06-22T17:38:21;23.90;99.90
43528;DHT22;52359;42.658;23.320;2023-06-22T17:40:50;23.90;99.90
43528;DHT22;52359;42.658;23.320;2023-06-22T17:58:04;23.60;99.90
43528;DHT22;52359;42.658;23.320;2023-06-22T18:00:30;23.80;99.90
43528;DHT22;52359;42.658;23.320;2023-06-22T18:05:35;23.60;99.90
43528;DHT22;52359;42.658;23.320;2023-06-22T18:12:58;23.40;99.90
43528;DHT22;52359;42.658;23.320;2023-06-22T18:15:25;23.40;99.90
43528;DHT22;52359;42.658;23.320;2023-06-22T18:17:52;23.20;99.90
43528;DHT22;52359;42.658;23.320;2023-06-22T18:20:18;23.20;99.90
43528;DHT22;52359;42.658;23.320;2023-06-22T18:22:48;23.20;99.90
43528;DHT22;52359;42.658;23.320;2023-06-22T18:39:59;23.00;99.90
43528;DHT22;52359;42.658;23.320;2023-06-22T18:47:30;22.80;99.90
43528;DHT22;52359;42.658;23.320;2023-06-22T18:50:08;22.80;99.90
43528;DHT22;52359;42.658;23.320;2023-06-22T18:52:35;22.80;99.90
43528;DHT22;52359;42.658;23.320;2023-06-22T18:55:03;22.80;99.90
43528;DHT22;52359;42.658;23.320;2023-06-22T19:10:30;22.50;99.90
43528;DHT22;52359;42.658;23.320;2023-06-22T19:13:27;22.60;99.90
43528;DHT22;52359;42.658;23.320;2023-06-22T19:15:57;22.50;99.90
43528;DHT22;52359;42.658;23.320;2023-06-22T19:18:25;22.40;99.90
43528;DHT22;52359;42.658;23.320;2023-06-22T19:21:01;22.50;99.90
43528;DHT22;52359;42.658;23.320;2023-06-22T21:38:44;19.90;99.90
43528;DHT22;52359;42.658;23.320;2023-06-22T21:41:10;20.10;99.90
43528;DHT22;52359;42.658;23.320;2023-06-22T21:43:35;20.20;99.90
43528;DHT22;52359;42.658;23.320;2023-06-22T21:48:27;19.80;99.90
43528;DHT22;52359;42.658;23.320;2023-06-22T21:55:45;19.60;99.90
43528;DHT22;52359;42.658;23.320;2023-06-22T21:58:11;19.50;99.90
